Portada
METAR-TAF:

METAR-TAF

Aeroports :

Ranchi, Índia

latitud: 23-18-51N, longitud: 85-19-18E, altitud: 646 m

Observació

L'informe es va fer fa 19 minuts, a les 02:30 UTC
Vent calma
Temperatura 13°C
Humitat 62%
Pressió 1018 hPa
Visibilitat: 2000 m
calitja

METAR: VERC 270230Z 00000KT 2000 HZ NSC 13/06 Q1018 NOSIG

Hora: 08:19 (02:49 UTC)

Pronòstic

L'informe es va fer fa 49 minuts, a les 02:00 UTC
Pronòstic vàlid del 27 a les 03 UTC al 27 a les 12 UTC
Vent 2 kt amb direcció variable
Visibilitat: 2500 m
calitja
Evolucionant progressivament
l' 27 a les 07 UTC al 27 a les 09 UTC
Vent 5 kt del Nord
Visibilitat: 4500 m
Núvols disperses a una alçada de 1800 ft
calitja

TAF: VERC 270200Z 2703/2712 VRB02KT 2500 HZ NSC BECMG 2707/2709 36005KT 4500 HZ SCT018

Observacions i pronòstics meteorològics de més de 4000 aeroports (METAR i TAF).

Les estacions disponibles són els punts grocs i vermells al mapa.

Posi el ratolí al punt desitjat per veure el nom de l'estació.

Feu clic per veure les observacions i els pronòstics meteorològics.

Per canviar el mapa: feu clic els botons verds amb una creu de color negre per apropar; al botó verd amb un guió per allunyar la imatge; o en les fletxes verdes per a mapes adjacents.


METAR-TAF: